sensor_id;sensor_type;location;lat;lon;timestamp;P1;durP1;ratioP1;P2;durP2;ratioP2
20609;SDS011;10463;52.378;9.688;2023-12-28T00:01:42;2.37;;;1.70;;
20609;SDS011;10463;52.378;9.688;2023-12-28T00:04:27;2.10;;;1.60;;
20609;SDS011;10463;52.378;9.688;2023-12-28T00:07:12;2.10;;;1.67;;
20609;SDS011;10463;52.378;9.688;2023-12-28T00:09:57;3.33;;;1.70;;
20609;SDS011;10463;52.378;9.688;2023-12-28T00:12:43;2.70;;;1.83;;
20609;SDS011;10463;52.378;9.688;2023-12-28T00:15:28;2.30;;;1.67;;
20609;SDS011;10463;52.378;9.688;2023-12-28T00:18:12;2.03;;;1.50;;
20609;SDS011;10463;52.378;9.688;2023-12-28T00:20:57;2.53;;;1.70;;
20609;SDS011;10463;52.378;9.688;2023-12-28T00:23:41;2.30;;;1.63;;
20609;SDS011;10463;52.378;9.688;2023-12-28T00:26:26;2.10;;;1.50;;
20609;SDS011;10463;52.378;9.688;2023-12-28T00:29:21;2.03;;;1.40;;
20609;SDS011;10463;52.378;9.688;2023-12-28T00:32:06;3.10;;;1.70;;
20609;SDS011;10463;52.378;9.688;2023-12-28T00:34:51;2.47;;;1.60;;
20609;SDS011;10463;52.378;9.688;2023-12-28T00:37:36;2.40;;;1.50;;
20609;SDS011;10463;52.378;9.688;2023-12-28T00:40:20;2.20;;;1.60;;
20609;SDS011;10463;52.378;9.688;2023-12-28T00:43:07;1.80;;;1.30;;
20609;SDS011;10463;52.378;9.688;2023-12-28T00:45:53;2.20;;;1.67;;
20609;SDS011;10463;52.378;9.688;2023-12-28T00:48:37;2.30;;;1.50;;
20609;SDS011;10463;52.378;9.688;2023-12-28T00:51:22;2.50;;;1.47;;
20609;SDS011;10463;52.378;9.688;2023-12-28T00:54:07;2.30;;;1.30;;
20609;SDS011;10463;52.378;9.688;2023-12-28T00:56:52;2.27;;;1.50;;
20609;SDS011;10463;52.378;9.688;2023-12-28T00:59:36;2.83;;;1.50;;
20609;SDS011;10463;52.378;9.688;2023-12-28T01:02:22;2.27;;;1.47;;
20609;SDS011;10463;52.378;9.688;2023-12-28T01:05:07;2.30;;;1.40;;
20609;SDS011;10463;52.378;9.688;2023-12-28T01:07:52;2.20;;;1.67;;
20609;SDS011;10463;52.378;9.688;2023-12-28T01:10:37;1.80;;;1.40;;
20609;SDS011;10463;52.378;9.688;2023-12-28T01:13:21;2.53;;;1.40;;
20609;SDS011;10463;52.378;9.688;2023-12-28T01:16:06;2.10;;;1.40;;
20609;SDS011;10463;52.378;9.688;2023-12-28T01:18:52;1.93;;;1.03;;
20609;SDS011;10463;52.378;9.688;2023-12-28T01:21:37;2.33;;;1.47;;
20609;SDS011;10463;52.378;9.688;2023-12-28T01:24:22;2.07;;;1.37;;
20609;SDS011;10463;52.378;9.688;2023-12-28T01:27:08;1.90;;;1.20;;
20609;SDS011;10463;52.378;9.688;2023-12-28T01:43:25;2.27;;;1.43;;
20609;SDS011;10463;52.378;9.688;2023-12-28T01:46:12;1.83;;;1.07;;
20609;SDS011;10463;52.378;9.688;2023-12-28T01:48:59;1.80;;;1.30;;
20609;SDS011;10463;52.378;9.688;2023-12-28T03:13:44;1.50;;;0.90;;
20609;SDS011;10463;52.378;9.688;2023-12-28T03:16:29;1.90;;;1.17;;
20609;SDS011;10463;52.378;9.688;2023-12-28T03:19:14;1.83;;;0.90;;
20609;SDS011;10463;52.378;9.688;2023-12-28T03:21:59;2.07;;;1.33;;
20609;SDS011;10463;52.378;9.688;2023-12-28T03:24:46;1.93;;;1.17;;
20609;SDS011;10463;52.378;9.688;2023-12-28T03:27:30;1.63;;;1.07;;
20609;SDS011;10463;52.378;9.688;2023-12-28T03:30:16;1.70;;;1.20;;
20609;SDS011;10463;52.378;9.688;2023-12-28T03:33:02;1.60;;;0.90;;
20609;SDS011;10463;52.378;9.688;2023-12-28T03:35:46;1.73;;;1.00;;
20609;SDS011;10463;52.378;9.688;2023-12-28T03:38:31;2.90;;;1.07;;
20609;SDS011;10463;52.378;9.688;2023-12-28T03:41:16;1.77;;;1.10;;
20609;SDS011;10463;52.378;9.688;2023-12-28T03:44:02;2.40;;;1.13;;
20609;SDS011;10463;52.378;9.688;2023-12-28T03:46:49;1.80;;;1.10;;
20609;SDS011;10463;52.378;9.688;2023-12-28T03:49:35;2.40;;;1.60;;
20609;SDS011;10463;52.378;9.688;2023-12-28T03:52:20;1.70;;;1.07;;
20609;SDS011;10463;52.378;9.688;2023-12-28T03:55:05;2.10;;;1.40;;
20609;SDS011;10463;52.378;9.688;2023-12-28T03:57:50;1.57;;;1.10;;
20609;SDS011;10463;52.378;9.688;2023-12-28T04:00:36;2.57;;;1.40;;
20609;SDS011;10463;52.378;9.688;2023-12-28T04:03:22;2.30;;;1.47;;
20609;SDS011;10463;52.378;9.688;2023-12-28T04:06:06;1.80;;;1.17;;
20609;SDS011;10463;52.378;9.688;2023-12-28T04:08:51;2.00;;;1.10;;
20609;SDS011;10463;52.378;9.688;2023-12-28T04:11:36;2.23;;;1.40;;
20609;SDS011;10463;52.378;9.688;2023-12-28T04:14:21;1.97;;;1.17;;
20609;SDS011;10463;52.378;9.688;2023-12-28T04:17:06;2.07;;;1.30;;
20609;SDS011;10463;52.378;9.688;2023-12-28T04:19:52;1.93;;;1.00;;
20609;SDS011;10463;52.378;9.688;2023-12-28T04:22:36;2.20;;;1.30;;
20609;SDS011;10463;52.378;9.688;2023-12-28T04:25:21;1.90;;;1.40;;
20609;SDS011;10463;52.378;9.688;2023-12-28T04:28:05;2.57;;;1.30;;
20609;SDS011;10463;52.378;9.688;2023-12-28T04:30:50;4.17;;;1.10;;
20609;SDS011;10463;52.378;9.688;2023-12-28T04:33:35;2.57;;;1.40;;
20609;SDS011;10463;52.378;9.688;2023-12-28T04:36:21;2.47;;;1.10;;
20609;SDS011;10463;52.378;9.688;2023-12-28T04:39:06;2.43;;;1.27;;
20609;SDS011;10463;52.378;9.688;2023-12-28T04:41:51;1.90;;;1.40;;
20609;SDS011;10463;52.378;9.688;2023-12-28T04:44:37;2.10;;;1.30;;
20609;SDS011;10463;52.378;9.688;2023-12-28T04:47:22;2.17;;;1.60;;
20609;SDS011;10463;52.378;9.688;2023-12-28T04:50:07;1.70;;;1.20;;
20609;SDS011;10463;52.378;9.688;2023-12-28T04:52:53;1.90;;;1.20;;
20609;SDS011;10463;52.378;9.688;2023-12-28T04:55:37;2.50;;;1.57;;
20609;SDS011;10463;52.378;9.688;2023-12-28T04:58:22;2.50;;;1.37;;
20609;SDS011;10463;52.378;9.688;2023-12-28T05:01:07;1.83;;;1.17;;
20609;SDS011;10463;52.378;9.688;2023-12-28T05:03:51;2.27;;;1.50;;
20609;SDS011;10463;52.378;9.688;2023-12-28T05:06:39;1.80;;;1.20;;
20609;SDS011;10463;52.378;9.688;2023-12-28T05:09:25;1.90;;;1.43;;
20609;SDS011;10463;52.378;9.688;2023-12-28T05:12:10;2.10;;;1.20;;
20609;SDS011;10463;52.378;9.688;2023-12-28T05:14:54;2.20;;;1.50;;
20609;SDS011;10463;52.378;9.688;2023-12-28T05:17:39;1.70;;;0.90;;
20609;SDS011;10463;52.378;9.688;2023-12-28T05:20:23;1.97;;;1.33;;
20609;SDS011;10463;52.378;9.688;2023-12-28T05:23:08;1.97;;;1.37;;
20609;SDS011;10463;52.378;9.688;2023-12-28T05:25:54;1.90;;;1.30;;
20609;SDS011;10463;52.378;9.688;2023-12-28T05:28:39;2.57;;;1.30;;
20609;SDS011;10463;52.378;9.688;2023-12-28T05:31:24;2.43;;;1.10;;
20609;SDS011;10463;52.378;9.688;2023-12-28T05:34:09;1.97;;;1.50;;
20609;SDS011;10463;52.378;9.688;2023-12-28T05:36:54;1.73;;;1.43;;
20609;SDS011;10463;52.378;9.688;2023-12-28T05:39:39;2.10;;;1.30;;
20609;SDS011;10463;52.378;9.688;2023-12-28T05:42:25;2.63;;;1.40;;
20609;SDS011;10463;52.378;9.688;2023-12-28T05:45:10;2.37;;;1.23;;
20609;SDS011;10463;52.378;9.688;2023-12-28T05:47:55;1.60;;;1.13;;
20609;SDS011;10463;52.378;9.688;2023-12-28T05:50:39;2.67;;;1.70;;
20609;SDS011;10463;52.378;9.688;2023-12-28T05:53:28;2.10;;;1.13;;
20609;SDS011;10463;52.378;9.688;2023-12-28T05:56:22;1.90;;;1.30;;
20609;SDS011;10463;52.378;9.688;2023-12-28T05:59:18;1.77;;;1.10;;
20609;SDS011;10463;52.378;9.688;2023-12-28T06:02:11;2.30;;;1.53;;
20609;SDS011;10463;52.378;9.688;2023-12-28T06:05:03;1.80;;;1.17;;
20609;SDS011;10463;52.378;9.688;2023-12-28T06:07:51;2.80;;;1.30;;
20609;SDS011;10463;52.378;9.688;2023-12-28T06:10:38;3.60;;;1.40;;
20609;SDS011;10463;52.378;9.688;2023-12-28T06:13:26;1.90;;;1.30;;
20609;SDS011;10463;52.378;9.688;2023-12-28T06:16:14;1.90;;;1.20;;
20609;SDS011;10463;52.378;9.688;2023-12-28T06:19:08;1.90;;;1.10;;
20609;SDS011;10463;52.378;9.688;2023-12-28T06:21:54;1.57;;;0.90;;
20609;SDS011;10463;52.378;9.688;2023-12-28T06:24:38;2.20;;;1.47;;
20609;SDS011;10463;52.378;9.688;2023-12-28T06:27:24;1.80;;;1.30;;
20609;SDS011;10463;52.378;9.688;2023-12-28T06:30:09;1.97;;;1.40;;
20609;SDS011;10463;52.378;9.688;2023-12-28T06:32:55;2.03;;;1.20;;
20609;SDS011;10463;52.378;9.688;2023-12-28T06:35:40;1.70;;;1.00;;
20609;SDS011;10463;52.378;9.688;2023-12-28T06:38:24;2.63;;;1.10;;
20609;SDS011;10463;52.378;9.688;2023-12-28T06:41:12;3.60;;;1.30;;
20609;SDS011;10463;52.378;9.688;2023-12-28T06:43:57;1.63;;;1.00;;
20609;SDS011;10463;52.378;9.688;2023-12-28T06:46:41;2.57;;;1.40;;
20609;SDS011;10463;52.378;9.688;2023-12-28T06:49:27;2.00;;;1.00;;
20609;SDS011;10463;52.378;9.688;2023-12-28T06:52:20;1.90;;;1.30;;
20609;SDS011;10463;52.378;9.688;2023-12-28T06:55:05;1.77;;;0.97;;
20609;SDS011;10463;52.378;9.688;2023-12-28T06:57:51;1.97;;;1.27;;
20609;SDS011;10463;52.378;9.688;2023-12-28T07:00:35;2.37;;;1.20;;
20609;SDS011;10463;52.378;9.688;2023-12-28T07:03:20;1.63;;;0.93;;
20609;SDS011;10463;52.378;9.688;2023-12-28T07:06:06;1.60;;;0.90;;
20609;SDS011;10463;52.378;9.688;2023-12-28T07:08:52;1.80;;;0.93;;
20609;SDS011;10463;52.378;9.688;2023-12-28T07:11:37;2.30;;;1.17;;
20609;SDS011;10463;52.378;9.688;2023-12-28T07:14:21;2.10;;;1.30;;
20609;SDS011;10463;52.378;9.688;2023-12-28T07:17:06;1.50;;;1.03;;
20609;SDS011;10463;52.378;9.688;2023-12-28T07:19:50;3.57;;;1.10;;
20609;SDS011;10463;52.378;9.688;2023-12-28T07:22:37;1.53;;;0.93;;
20609;SDS011;10463;52.378;9.688;2023-12-28T07:25:22;2.30;;;1.10;;
20609;SDS011;10463;52.378;9.688;2023-12-28T07:28:07;2.10;;;1.40;;
20609;SDS011;10463;52.378;9.688;2023-12-28T07:30:53;3.57;;;1.30;;
20609;SDS011;10463;52.378;9.688;2023-12-28T07:33:37;2.53;;;1.57;;
20609;SDS011;10463;52.378;9.688;2023-12-28T07:36:22;1.80;;;1.10;;
20609;SDS011;10463;52.378;9.688;2023-12-28T07:39:08;2.07;;;1.33;;
20609;SDS011;10463;52.378;9.688;2023-12-28T07:41:53;2.23;;;1.17;;
20609;SDS011;10463;52.378;9.688;2023-12-28T07:44:40;2.00;;;1.20;;
20609;SDS011;10463;52.378;9.688;2023-12-28T07:47:25;1.93;;;1.30;;
20609;SDS011;10463;52.378;9.688;2023-12-28T07:50:10;3.20;;;1.80;;
20609;SDS011;10463;52.378;9.688;2023-12-28T07:52:55;2.17;;;1.30;;
20609;SDS011;10463;52.378;9.688;2023-12-28T07:55:41;2.37;;;1.53;;
20609;SDS011;10463;52.378;9.688;2023-12-28T07:58:25;1.90;;;1.20;;
20609;SDS011;10463;52.378;9.688;2023-12-28T08:01:10;2.43;;;1.50;;
20609;SDS011;10463;52.378;9.688;2023-12-28T08:03:55;2.10;;;1.30;;
20609;SDS011;10463;52.378;9.688;2023-12-28T08:06:39;5.07;;;1.53;;
20609;SDS011;10463;52.378;9.688;2023-12-28T08:09:24;2.00;;;1.50;;
20609;SDS011;10463;52.378;9.688;2023-12-28T08:12:10;2.53;;;1.10;;
20609;SDS011;10463;52.378;9.688;2023-12-28T08:14:55;2.03;;;1.50;;
20609;SDS011;10463;52.378;9.688;2023-12-28T08:17:40;2.97;;;1.47;;
20609;SDS011;10463;52.378;9.688;2023-12-28T08:20:24;2.20;;;1.47;;
20609;SDS011;10463;52.378;9.688;2023-12-28T08:23:09;2.03;;;1.20;;
20609;SDS011;10463;52.378;9.688;2023-12-28T08:25:53;2.63;;;1.30;;
20609;SDS011;10463;52.378;9.688;2023-12-28T08:28:39;2.13;;;0.93;;
20609;SDS011;10463;52.378;9.688;2023-12-28T08:31:24;2.40;;;1.50;;
20609;SDS011;10463;52.378;9.688;2023-12-28T08:34:08;2.17;;;1.00;;
20609;SDS011;10463;52.378;9.688;2023-12-28T08:36:53;2.13;;;1.30;;
20609;SDS011;10463;52.378;9.688;2023-12-28T08:39:39;1.73;;;1.20;;
20609;SDS011;10463;52.378;9.688;2023-12-28T08:42:24;1.77;;;1.20;;
20609;SDS011;10463;52.378;9.688;2023-12-28T08:45:10;2.67;;;1.63;;
20609;SDS011;10463;52.378;9.688;2023-12-28T08:47:55;1.73;;;1.10;;
20609;SDS011;10463;52.378;9.688;2023-12-28T08:50:40;2.03;;;1.20;;
20609;SDS011;10463;52.378;9.688;2023-12-28T08:53:25;2.10;;;1.27;;
20609;SDS011;10463;52.378;9.688;2023-12-28T08:56:13;2.50;;;1.27;;
20609;SDS011;10463;52.378;9.688;2023-12-28T08:59:01;2.00;;;1.20;;
20609;SDS011;10463;52.378;9.688;2023-12-28T09:01:47;2.33;;;1.70;;
20609;SDS011;10463;52.378;9.688;2023-12-28T09:04:31;2.43;;;1.40;;
20609;SDS011;10463;52.378;9.688;2023-12-28T09:07:16;2.87;;;1.47;;
20609;SDS011;10463;52.378;9.688;2023-12-28T09:10:04;2.50;;;1.50;;
20609;SDS011;10463;52.378;9.688;2023-12-28T09:12:48;2.40;;;1.30;;
20609;SDS011;10463;52.378;9.688;2023-12-28T09:15:33;2.00;;;1.20;;
20609;SDS011;10463;52.378;9.688;2023-12-28T09:18:20;2.43;;;1.23;;
20609;SDS011;10463;52.378;9.688;2023-12-28T09:21:05;2.37;;;1.23;;
20609;SDS011;10463;52.378;9.688;2023-12-28T09:23:51;1.90;;;1.20;;
20609;SDS011;10463;52.378;9.688;2023-12-28T09:26:36;1.80;;;1.17;;
20609;SDS011;10463;52.378;9.688;2023-12-28T09:29:20;2.97;;;1.30;;
20609;SDS011;10463;52.378;9.688;2023-12-28T09:32:05;2.63;;;1.70;;
20609;SDS011;10463;52.378;9.688;2023-12-28T09:34:52;1.83;;;1.27;;
20609;SDS011;10463;52.378;9.688;2023-12-28T09:37:36;2.20;;;1.00;;
20609;SDS011;10463;52.378;9.688;2023-12-28T09:40:21;3.80;;;1.60;;
20609;SDS011;10463;52.378;9.688;2023-12-28T09:43:09;2.23;;;1.07;;
20609;SDS011;10463;52.378;9.688;2023-12-28T09:45:59;2.03;;;1.33;;
20609;SDS011;10463;52.378;9.688;2023-12-28T09:48:44;2.23;;;1.03;;
20609;SDS011;10463;52.378;9.688;2023-12-28T09:51:30;2.30;;;1.53;;
20609;SDS011;10463;52.378;9.688;2023-12-28T09:54:15;3.13;;;1.43;;
20609;SDS011;10463;52.378;9.688;2023-12-28T09:57:02;1.90;;;1.00;;
20609;SDS011;10463;52.378;9.688;2023-12-28T09:59:48;2.50;;;1.27;;
20609;SDS011;10463;52.378;9.688;2023-12-28T10:02:33;1.87;;;1.10;;
20609;SDS011;10463;52.378;9.688;2023-12-28T10:05:19;2.10;;;1.40;;
20609;SDS011;10463;52.378;9.688;2023-12-28T10:08:05;2.70;;;1.33;;
20609;SDS011;10463;52.378;9.688;2023-12-28T10:10:50;1.73;;;1.03;;
20609;SDS011;10463;52.378;9.688;2023-12-28T10:13:37;3.00;;;1.20;;
20609;SDS011;10463;52.378;9.688;2023-12-28T10:16:22;2.87;;;1.80;;
20609;SDS011;10463;52.378;9.688;2023-12-28T10:19:07;2.50;;;1.40;;
20609;SDS011;10463;52.378;9.688;2023-12-28T10:21:51;2.30;;;1.67;;
20609;SDS011;10463;52.378;9.688;2023-12-28T10:24:42;2.17;;;1.37;;
20609;SDS011;10463;52.378;9.688;2023-12-28T10:27:27;1.77;;;1.07;;
20609;SDS011;10463;52.378;9.688;2023-12-28T10:30:12;2.20;;;1.40;;
20609;SDS011;10463;52.378;9.688;2023-12-28T10:32:57;1.70;;;1.10;;
20609;SDS011;10463;52.378;9.688;2023-12-28T10:35:42;1.90;;;1.10;;
20609;SDS011;10463;52.378;9.688;2023-12-28T10:38:28;2.23;;;1.30;;
20609;SDS011;10463;52.378;9.688;2023-12-28T10:41:19;2.30;;;1.70;;
20609;SDS011;10463;52.378;9.688;2023-12-28T10:44:05;2.60;;;1.53;;
20609;SDS011;10463;52.378;9.688;2023-12-28T10:46:52;3.60;;;1.47;;
20609;SDS011;10463;52.378;9.688;2023-12-28T10:49:41;1.90;;;1.40;;
20609;SDS011;10463;52.378;9.688;2023-12-28T10:52:27;1.77;;;0.90;;
20609;SDS011;10463;52.378;9.688;2023-12-28T10:55:21;2.27;;;1.47;;
20609;SDS011;10463;52.378;9.688;2023-12-28T10:58:17;2.30;;;1.70;;
20609;SDS011;10463;52.378;9.688;2023-12-28T11:01:08;3.50;;;1.40;;
20609;SDS011;10463;52.378;9.688;2023-12-28T11:03:58;3.07;;;1.30;;
20609;SDS011;10463;52.378;9.688;2023-12-28T11:06:48;2.63;;;1.47;;
20609;SDS011;10463;52.378;9.688;2023-12-28T11:09:35;1.90;;;1.23;;
20609;SDS011;10463;52.378;9.688;2023-12-28T11:12:21;3.30;;;1.30;;
20609;SDS011;10463;52.378;9.688;2023-12-28T11:15:09;2.37;;;1.40;;
20609;SDS011;10463;52.378;9.688;2023-12-28T11:17:55;2.33;;;1.23;;
20609;SDS011;10463;52.378;9.688;2023-12-28T11:20:40;2.93;;;1.50;;
20609;SDS011;10463;52.378;9.688;2023-12-28T11:23:24;4.10;;;1.80;;
20609;SDS011;10463;52.378;9.688;2023-12-28T11:26:15;2.90;;;1.80;;
20609;SDS011;10463;52.378;9.688;2023-12-28T11:29:01;3.30;;;1.93;;
20609;SDS011;10463;52.378;9.688;2023-12-28T11:31:51;2.97;;;1.77;;
20609;SDS011;10463;52.378;9.688;2023-12-28T11:34:36;5.67;;;2.53;;
20609;SDS011;10463;52.378;9.688;2023-12-28T11:37:21;3.33;;;1.93;;
20609;SDS011;10463;52.378;9.688;2023-12-28T11:40:11;2.67;;;2.00;;
20609;SDS011;10463;52.378;9.688;2023-12-28T11:43:00;3.70;;;2.03;;
20609;SDS011;10463;52.378;9.688;2023-12-28T11:45:49;2.93;;;1.90;;
20609;SDS011;10463;52.378;9.688;2023-12-28T11:48:37;3.57;;;2.20;;
20609;SDS011;10463;52.378;9.688;2023-12-28T11:51:21;3.33;;;2.07;;
20609;SDS011;10463;52.378;9.688;2023-12-28T11:54:06;3.93;;;2.37;;
20609;SDS011;10463;52.378;9.688;2023-12-28T11:56:51;4.10;;;2.20;;
20609;SDS011;10463;52.378;9.688;2023-12-28T11:59:36;3.93;;;2.40;;
20609;SDS011;10463;52.378;9.688;2023-12-28T12:02:22;4.03;;;2.77;;
20609;SDS011;10463;52.378;9.688;2023-12-28T12:05:09;4.40;;;1.93;;
20609;SDS011;10463;52.378;9.688;2023-12-28T12:07:54;2.83;;;2.10;;
20609;SDS011;10463;52.378;9.688;2023-12-28T12:10:38;3.33;;;2.00;;
20609;SDS011;10463;52.378;9.688;2023-12-28T12:13:23;3.00;;;2.00;;
20609;SDS011;10463;52.378;9.688;2023-12-28T12:16:09;3.53;;;2.40;;
20609;SDS011;10463;52.378;9.688;2023-12-28T12:18:54;2.30;;;1.77;;
20609;SDS011;10463;52.378;9.688;2023-12-28T12:21:41;3.57;;;2.00;;
20609;SDS011;10463;52.378;9.688;2023-12-28T12:24:26;3.07;;;1.80;;
20609;SDS011;10463;52.378;9.688;2023-12-28T12:27:10;4.33;;;2.23;;
20609;SDS011;10463;52.378;9.688;2023-12-28T12:29:55;3.97;;;2.40;;
20609;SDS011;10463;52.378;9.688;2023-12-28T12:32:40;5.00;;;2.37;;
20609;SDS011;10463;52.378;9.688;2023-12-28T12:35:27;3.23;;;2.50;;
20609;SDS011;10463;52.378;9.688;2023-12-28T12:38:13;3.87;;;3.10;;
20609;SDS011;10463;52.378;9.688;2023-12-28T12:40:58;5.47;;;3.90;;
20609;SDS011;10463;52.378;9.688;2023-12-28T12:43:43;4.50;;;3.53;;
20609;SDS011;10463;52.378;9.688;2023-12-28T12:46:28;4.50;;;3.50;;
20609;SDS011;10463;52.378;9.688;2023-12-28T12:49:15;6.00;;;4.60;;
20609;SDS011;10463;52.378;9.688;2023-12-28T12:52:00;5.37;;;4.00;;
20609;SDS011;10463;52.378;9.688;2023-12-28T12:54:54;6.50;;;4.37;;
20609;SDS011;10463;52.378;9.688;2023-12-28T12:57:39;5.10;;;3.50;;
20609;SDS011;10463;52.378;9.688;2023-12-28T13:00:25;5.07;;;4.07;;
20609;SDS011;10463;52.378;9.688;2023-12-28T13:03:11;4.73;;;3.90;;
20609;SDS011;10463;52.378;9.688;2023-12-28T13:05:56;5.93;;;4.00;;
20609;SDS011;10463;52.378;9.688;2023-12-28T13:08:41;4.63;;;3.90;;
20609;SDS011;10463;52.378;9.688;2023-12-28T13:11:27;6.10;;;4.17;;
20609;SDS011;10463;52.378;9.688;2023-12-28T13:14:11;6.27;;;3.97;;
20609;SDS011;10463;52.378;9.688;2023-12-28T13:16:56;4.87;;;3.53;;
20609;SDS011;10463;52.378;9.688;2023-12-28T13:19:41;4.57;;;3.57;;
20609;SDS011;10463;52.378;9.688;2023-12-28T13:22:25;4.60;;;3.63;;
20609;SDS011;10463;52.378;9.688;2023-12-28T13:25:10;4.57;;;3.50;;
20609;SDS011;10463;52.378;9.688;2023-12-28T13:27:56;5.20;;;3.97;;
20609;SDS011;10463;52.378;9.688;2023-12-28T13:30:40;4.37;;;3.70;;
20609;SDS011;10463;52.378;9.688;2023-12-28T13:33:25;4.20;;;3.43;;
20609;SDS011;10463;52.378;9.688;2023-12-28T13:36:10;4.87;;;3.77;;
20609;SDS011;10463;52.378;9.688;2023-12-28T13:38:54;5.83;;;3.87;;
20609;SDS011;10463;52.378;9.688;2023-12-28T13:41:39;4.57;;;3.60;;
20609;SDS011;10463;52.378;9.688;2023-12-28T13:44:25;5.93;;;3.00;;
20609;SDS011;10463;52.378;9.688;2023-12-28T13:47:11;4.53;;;2.90;;
20609;SDS011;10463;52.378;9.688;2023-12-28T13:49:55;6.30;;;3.57;;
20609;SDS011;10463;52.378;9.688;2023-12-28T13:52:40;4.77;;;3.07;;
20609;SDS011;10463;52.378;9.688;2023-12-28T13:55:25;4.70;;;3.53;;
20609;SDS011;10463;52.378;9.688;2023-12-28T13:58:12;4.07;;;3.27;;
20609;SDS011;10463;52.378;9.688;2023-12-28T14:00:58;3.83;;;2.40;;
20609;SDS011;10463;52.378;9.688;2023-12-28T14:03:42;4.97;;;3.20;;
20609;SDS011;10463;52.378;9.688;2023-12-28T14:06:29;4.00;;;3.10;;
20609;SDS011;10463;52.378;9.688;2023-12-28T14:09:14;4.90;;;3.00;;
20609;SDS011;10463;52.378;9.688;2023-12-28T14:12:03;4.73;;;3.23;;
20609;SDS011;10463;52.378;9.688;2023-12-28T14:14:48;4.33;;;2.60;;
20609;SDS011;10463;52.378;9.688;2023-12-28T14:17:34;4.33;;;2.93;;
20609;SDS011;10463;52.378;9.688;2023-12-28T14:20:19;5.07;;;3.03;;
20609;SDS011;10463;52.378;9.688;2023-12-28T14:23:04;6.03;;;3.50;;
20609;SDS011;10463;52.378;9.688;2023-12-28T14:25:49;4.27;;;2.63;;
20609;SDS011;10463;52.378;9.688;2023-12-28T14:28:37;4.13;;;2.30;;
20609;SDS011;10463;52.378;9.688;2023-12-28T14:31:23;3.93;;;2.43;;
20609;SDS011;10463;52.378;9.688;2023-12-28T14:34:11;5.00;;;3.20;;
20609;SDS011;10463;52.378;9.688;2023-12-28T14:36:56;3.77;;;2.80;;
20609;SDS011;10463;52.378;9.688;2023-12-28T14:39:41;4.27;;;3.13;;
20609;SDS011;10463;52.378;9.688;2023-12-28T14:42:27;3.27;;;2.30;;
20609;SDS011;10463;52.378;9.688;2023-12-28T14:45:11;3.10;;;2.50;;
20609;SDS011;10463;52.378;9.688;2023-12-28T14:47:56;2.70;;;2.10;;
20609;SDS011;10463;52.378;9.688;2023-12-28T14:50:42;3.47;;;2.30;;
20609;SDS011;10463;52.378;9.688;2023-12-28T14:53:27;4.23;;;2.60;;
20609;SDS011;10463;52.378;9.688;2023-12-28T14:56:11;4.17;;;2.57;;
20609;SDS011;10463;52.378;9.688;2023-12-28T14:58:56;3.17;;;2.30;;
20609;SDS011;10463;52.378;9.688;2023-12-28T15:01:41;3.73;;;2.23;;
20609;SDS011;10463;52.378;9.688;2023-12-28T15:04:25;4.30;;;2.63;;
20609;SDS011;10463;52.378;9.688;2023-12-28T15:07:11;2.80;;;2.03;;
20609;SDS011;10463;52.378;9.688;2023-12-28T15:09:56;5.10;;;2.67;;
20609;SDS011;10463;52.378;9.688;2023-12-28T15:12:42;3.70;;;2.53;;
20609;SDS011;10463;52.378;9.688;2023-12-28T15:15:29;4.57;;;2.13;;
20609;SDS011;10463;52.378;9.688;2023-12-28T15:18:14;3.67;;;2.73;;
20609;SDS011;10463;52.378;9.688;2023-12-28T15:21:01;4.10;;;2.70;;
20609;SDS011;10463;52.378;9.688;2023-12-28T15:23:49;3.43;;;2.20;;
20609;SDS011;10463;52.378;9.688;2023-12-28T15:26:34;4.43;;;2.47;;
20609;SDS011;10463;52.378;9.688;2023-12-28T15:29:20;4.00;;;2.63;;
20609;SDS011;10463;52.378;9.688;2023-12-28T15:32:05;3.50;;;2.50;;
20609;SDS011;10463;52.378;9.688;2023-12-28T15:34:50;3.50;;;2.67;;
20609;SDS011;10463;52.378;9.688;2023-12-28T15:37:34;2.77;;;2.20;;
20609;SDS011;10463;52.378;9.688;2023-12-28T15:40:20;3.27;;;2.40;;
20609;SDS011;10463;52.378;9.688;2023-12-28T15:43:05;3.53;;;2.43;;
20609;SDS011;10463;52.378;9.688;2023-12-28T15:45:49;3.63;;;2.00;;
20609;SDS011;10463;52.378;9.688;2023-12-28T15:48:35;3.00;;;1.83;;
20609;SDS011;10463;52.378;9.688;2023-12-28T15:51:19;4.73;;;2.27;;
20609;SDS011;10463;52.378;9.688;2023-12-28T15:54:04;3.23;;;2.17;;
20609;SDS011;10463;52.378;9.688;2023-12-28T15:56:50;2.90;;;2.00;;
20609;SDS011;10463;52.378;9.688;2023-12-28T15:59:34;3.67;;;1.87;;
20609;SDS011;10463;52.378;9.688;2023-12-28T16:02:19;3.53;;;2.13;;
20609;SDS011;10463;52.378;9.688;2023-12-28T16:05:05;3.90;;;1.97;;
20609;SDS011;10463;52.378;9.688;2023-12-28T16:07:49;2.93;;;1.97;;
20609;SDS011;10463;52.378;9.688;2023-12-28T16:10:34;3.77;;;1.90;;
20609;SDS011;10463;52.378;9.688;2023-12-28T16:13:20;3.17;;;1.70;;
20609;SDS011;10463;52.378;9.688;2023-12-28T16:16:06;2.80;;;2.00;;
20609;SDS011;10463;52.378;9.688;2023-12-28T16:18:52;2.83;;;1.63;;
20609;SDS011;10463;52.378;9.688;2023-12-28T16:21:37;3.50;;;2.23;;
20609;SDS011;10463;52.378;9.688;2023-12-28T16:24:22;4.80;;;2.00;;
20609;SDS011;10463;52.378;9.688;2023-12-28T16:27:08;2.50;;;1.53;;
20609;SDS011;10463;52.378;9.688;2023-12-28T16:29:54;3.27;;;2.33;;
20609;SDS011;10463;52.378;9.688;2023-12-28T16:32:38;3.80;;;1.83;;
20609;SDS011;10463;52.378;9.688;2023-12-28T16:35:23;2.67;;;1.50;;
20609;SDS011;10463;52.378;9.688;2023-12-28T16:38:07;2.63;;;1.50;;
20609;SDS011;10463;52.378;9.688;2023-12-28T16:40:52;3.67;;;1.70;;
20609;SDS011;10463;52.378;9.688;2023-12-28T16:43:36;3.20;;;1.67;;
20609;SDS011;10463;52.378;9.688;2023-12-28T16:46:24;3.90;;;1.93;;
20609;SDS011;10463;52.378;9.688;2023-12-28T16:49:08;2.30;;;1.40;;
20609;SDS011;10463;52.378;9.688;2023-12-28T16:51:53;2.83;;;1.80;;
20609;SDS011;10463;52.378;9.688;2023-12-28T16:54:37;2.47;;;1.67;;
20609;SDS011;10463;52.378;9.688;2023-12-28T16:57:22;2.83;;;1.60;;
20609;SDS011;10463;52.378;9.688;2023-12-28T17:00:08;2.60;;;1.40;;
20609;SDS011;10463;52.378;9.688;2023-12-28T17:02:54;3.33;;;1.50;;
20609;SDS011;10463;52.378;9.688;2023-12-28T17:05:39;2.90;;;1.40;;
20609;SDS011;10463;52.378;9.688;2023-12-28T17:08:24;2.77;;;1.37;;
20609;SDS011;10463;52.378;9.688;2023-12-28T17:11:11;3.77;;;2.10;;
20609;SDS011;10463;52.378;9.688;2023-12-28T17:14:00;3.10;;;1.50;;
20609;SDS011;10463;52.378;9.688;2023-12-28T17:16:46;3.67;;;2.10;;
20609;SDS011;10463;52.378;9.688;2023-12-28T17:19:33;2.60;;;1.30;;
20609;SDS011;10463;52.378;9.688;2023-12-28T17:22:17;2.13;;;1.20;;
20609;SDS011;10463;52.378;9.688;2023-12-28T17:25:08;1.83;;;1.10;;
20609;SDS011;10463;52.378;9.688;2023-12-28T17:28:03;4.17;;;2.00;;
20609;SDS011;10463;52.378;9.688;2023-12-28T17:30:54;3.13;;;1.50;;
20609;SDS011;10463;52.378;9.688;2023-12-28T17:33:40;4.30;;;1.63;;
20609;SDS011;10463;52.378;9.688;2023-12-28T17:36:27;2.43;;;1.63;;
20609;SDS011;10463;52.378;9.688;2023-12-28T17:39:15;2.90;;;1.50;;
20609;SDS011;10463;52.378;9.688;2023-12-28T17:42:00;2.50;;;1.50;;
20609;SDS011;10463;52.378;9.688;2023-12-28T17:44:46;4.80;;;1.70;;
20609;SDS011;10463;52.378;9.688;2023-12-28T17:47:40;3.27;;;1.77;;
20609;SDS011;10463;52.378;9.688;2023-12-28T17:50:37;2.53;;;1.40;;
20609;SDS011;10463;52.378;9.688;2023-12-28T17:53:24;2.97;;;2.03;;
20609;SDS011;10463;52.378;9.688;2023-12-28T17:56:09;2.60;;;1.40;;
20609;SDS011;10463;52.378;9.688;2023-12-28T17:58:57;2.83;;;1.40;;
20609;SDS011;10463;52.378;9.688;2023-12-28T18:01:41;2.50;;;1.40;;
20609;SDS011;10463;52.378;9.688;2023-12-28T18:04:26;2.53;;;1.50;;
20609;SDS011;10463;52.378;9.688;2023-12-28T18:07:10;2.83;;;1.50;;
20609;SDS011;10463;52.378;9.688;2023-12-28T18:09:56;3.70;;;1.30;;
20609;SDS011;10463;52.378;9.688;2023-12-28T18:12:41;2.57;;;1.47;;
20609;SDS011;10463;52.378;9.688;2023-12-28T18:15:25;2.60;;;1.40;;